PWSweather.com
Personal Weather Stations
Station Observations
FM1HN
Gros MorneMQ 97213

Gros MorneMQ 97213

Lat: 14.7107851, Lon: -61.003055399999994

Elevation: 0

Station Type:

Latest ConditionsUpdated 11:45:01 AM GMT-04:56 Tuesday, Sep 25, 2018
Currently Today's Max Today's Min Today's Average
Temperature 79.7°F26.5°C 79.9°F26.6°C 76.6°F24.8°C 77.8°F25.4°C
Dew Point 74.8°F23.8°C 76.1°F24.5°C 73.7°F23.2°C 75.3°F24.1°C
Winds 3.5 mph ESE5.6 kmh ESE 3.5 mph -5.6 kmh - - 1.1 mph 1.8 kmh
Wind Gusts 4.6 mph7.4 kmh 6.9 mph11.1 kmh - -
Humidity 85% 97% 82% 92%
Pressure 29.99 in1015.6 mb 29.99 in1015.6 mb 29.91 in1012.9 mb -
Precipitation - 0.22 in5.6 mm - -
Hour Temp Dew Point Humidity Winds Wind Gusts Pressure Precip Precip Rate Daily Precip Total
11:45 AM 79.7°F26.5°C 74.8°F23.8°C 85% 3.5 mph ESE5.6 kmh ESE 4.6 mph7.4 kmh 29.99 in1015.6 mb - 0.00 in0.0 mm 0.22 in5.6 mm
11:40 AM 79.7°F26.5°C 74.8°F23.8°C 85% 3.5 mph ESE5.6 kmh ESE 4.6 mph7.4 kmh 29.99 in1015.6 mb - 0.00 in0.0 mm 0.22 in5.6 mm
11:35 AM 79.7°F26.5°C 74.8°F23.8°C 85% 3.5 mph ESE5.6 kmh ESE 4.6 mph7.4 kmh 29.99 in1015.6 mb - 0.00 in0.0 mm 0.22 in5.6 mm
11:30 AM 79.7°F26.5°C 74.8°F23.8°C 85% 3.5 mph ESE5.6 kmh ESE 4.6 mph7.4 kmh 29.99 in1015.6 mb - 0.00 in0.0 mm 0.22 in5.6 mm
11:25 AM 79.7°F26.5°C 74.8°F23.8°C 85% 3.5 mph ESE5.6 kmh ESE 4.6 mph7.4 kmh 29.99 in1015.6 mb - 0.00 in0.0 mm 0.22 in5.6 mm
11:20 AM 79.7°F26.5°C 74.8°F23.8°C 85% 3.5 mph ESE5.6 kmh ESE 4.6 mph7.4 kmh 29.99 in1015.6 mb - 0.00 in0.0 mm 0.22 in5.6 mm
11:15 AM 79.7°F26.5°C 74.8°F23.8°C 85% 3.5 mph ESE5.6 kmh ESE 4.6 mph7.4 kmh 29.99 in1015.6 mb - 0.00 in0.0 mm 0.22 in5.6 mm
11:10 AM 79.7°F26.5°C 74.8°F23.8°C 85% 3.5 mph ESE5.6 kmh ESE 4.6 mph7.4 kmh 29.99 in1015.6 mb - 0.00 in0.0 mm 0.22 in5.6 mm
11:00 AM 79.7°F26.5°C 74.8°F23.8°C 85% 3.5 mph ESE5.6 kmh ESE 4.6 mph7.4 kmh 29.99 in1015.6 mb - 0.00 in0.0 mm 0.22 in5.6 mm
10:55 AM 79.7°F26.5°C 74.8°F23.8°C 85% 3.5 mph ESE5.6 kmh ESE 4.6 mph7.4 kmh 29.99 in1015.6 mb - 0.00 in0.0 mm 0.22 in5.6 mm
10:50 AM 79.7°F26.5°C 74.8°F23.8°C 85% 3.5 mph ESE5.6 kmh ESE 4.6 mph7.4 kmh 29.99 in1015.6 mb - 0.00 in0.0 mm 0.22 in5.6 mm
10:45 AM 79.7°F26.5°C 74.8°F23.8°C 85% 3.5 mph ESE5.6 kmh ESE 4.6 mph7.4 kmh 29.99 in1015.6 mb - 0.00 in0.0 mm 0.22 in5.6 mm
10:40 AM 79.7°F26.5°C 74.8°F23.8°C 85% 3.5 mph ESE5.6 kmh ESE 4.6 mph7.4 kmh 29.99 in1015.6 mb - 0.00 in0.0 mm 0.22 in5.6 mm
10:35 AM 79.7°F26.5°C 74.8°F23.8°C 85% 3.5 mph ESE5.6 kmh ESE 4.6 mph7.4 kmh 29.99 in1015.6 mb - 0.00 in0.0 mm 0.22 in5.6 mm
10:30 AM 79.7°F26.5°C 74.8°F23.8°C 85% 3.5 mph ESE5.6 kmh ESE 4.6 mph7.4 kmh 29.99 in1015.6 mb - 0.00 in0.0 mm 0.22 in5.6 mm
10:25 AM 79.7°F26.5°C 74.8°F23.8°C 85% 3.5 mph ESE5.6 kmh ESE 4.6 mph7.4 kmh 29.99 in1015.6 mb - 0.00 in0.0 mm 0.22 in5.6 mm
10:20 AM 79.7°F26.5°C 74.8°F23.8°C 85% 3.5 mph ESE5.6 kmh ESE 4.6 mph7.4 kmh 29.99 in1015.6 mb - 0.00 in0.0 mm 0.22 in5.6 mm
10:15 AM 79.7°F26.5°C 74.8°F23.8°C 85% 3.5 mph ESE5.6 kmh ESE 4.6 mph7.4 kmh 29.99 in1015.6 mb - 0.00 in0.0 mm 0.22 in5.6 mm
10:10 AM 79.7°F26.5°C 74.8°F23.8°C 85% 3.5 mph ESE5.6 kmh ESE 4.6 mph7.4 kmh 29.99 in1015.6 mb - 0.00 in0.0 mm 0.22 in5.6 mm
10:00 AM 79.7°F26.5°C 74.8°F23.8°C 85% 3.5 mph ESE5.6 kmh ESE 4.6 mph7.4 kmh 29.99 in1015.6 mb - 0.00 in0.0 mm 0.22 in5.6 mm
09:55 AM 79.7°F26.5°C 74.8°F23.8°C 85% 3.5 mph ESE5.6 kmh ESE 4.6 mph7.4 kmh 29.99 in1015.6 mb - 0.00 in0.0 mm 0.22 in5.6 mm
09:50 AM 79.7°F26.5°C 74.8°F23.8°C 85% 3.5 mph ESE5.6 kmh ESE 4.6 mph7.4 kmh 29.99 in1015.6 mb - 0.00 in0.0 mm 0.22 in5.6 mm
09:45 AM 79.7°F26.5°C 74.8°F23.8°C 85% 3.5 mph ESE5.6 kmh ESE 4.6 mph7.4 kmh 29.99 in1015.6 mb - 0.00 in0.0 mm 0.22 in5.6 mm
09:40 AM 79.7°F26.5°C 74.8°F23.8°C 85% 3.5 mph ESE5.6 kmh ESE 4.6 mph7.4 kmh 29.99 in1015.6 mb - 0.00 in0.0 mm 0.22 in5.6 mm
09:35 AM 79.7°F26.5°C 74.8°F23.8°C 85% 3.5 mph ESE5.6 kmh ESE 4.6 mph7.4 kmh 29.99 in1015.6 mb - 0.00 in0.0 mm 0.22 in5.6 mm
09:30 AM 79.7°F26.5°C 74.8°F23.8°C 85% 3.5 mph ESE5.6 kmh ESE 4.6 mph7.4 kmh 29.99 in1015.6 mb - 0.00 in0.0 mm 0.22 in5.6 mm
09:25 AM 79.7°F26.5°C 74.8°F23.8°C 85% 3.5 mph ESE5.6 kmh ESE 4.6 mph7.4 kmh 29.99 in1015.6 mb - 0.00 in0.0 mm 0.22 in5.6 mm
09:20 AM 79.7°F26.5°C 74.8°F23.8°C 85% 3.5 mph ESE5.6 kmh ESE 4.6 mph7.4 kmh 29.99 in1015.6 mb - 0.00 in0.0 mm 0.22 in5.6 mm
09:15 AM 79.7°F26.5°C 74.8°F23.8°C 85% 3.5 mph ESE5.6 kmh ESE 4.6 mph7.4 kmh 29.99 in1015.6 mb - 0.00 in0.0 mm 0.22 in5.6 mm
09:10 AM 79.7°F26.5°C 74.8°F23.8°C 85% 3.5 mph ESE5.6 kmh ESE 4.6 mph7.4 kmh 29.99 in1015.6 mb - 0.00 in0.0 mm 0.22 in5.6 mm
09:00 AM 79.7°F26.5°C 74.8°F23.8°C 85% 3.5 mph ESE5.6 kmh ESE 4.6 mph7.4 kmh 29.99 in1015.6 mb - 0.00 in0.0 mm 0.22 in5.6 mm
08:55 AM 79.7°F26.5°C 74.8°F23.8°C 85% 3.5 mph ESE5.6 kmh ESE 4.6 mph7.4 kmh 29.99 in1015.6 mb - 0.00 in0.0 mm 0.22 in5.6 mm
08:50 AM 79.7°F26.5°C 74.8°F23.8°C 85% 3.5 mph ESE5.6 kmh ESE 4.6 mph7.4 kmh 29.99 in1015.6 mb - 0.00 in0.0 mm 0.22 in5.6 mm
08:45 AM 79.9°F26.6°C 74.3°F23.5°C 83% 2.3 mph NE3.7 kmh NE 6.9 mph11.1 kmh 29.98 in1015.2 mb - 0.00 in0.0 mm 0.22 in5.6 mm
08:40 AM 79.7°F26.5°C 73.7°F23.2°C 82% 2.3 mph NE3.7 kmh NE 4.6 mph7.4 kmh 29.98 in1015.2 mb - 0.00 in0.0 mm 0.22 in5.6 mm
08:35 AM 79.5°F26.4°C 74.3°F23.5°C 84% 2.3 mph NE3.7 kmh NE 6.9 mph11.1 kmh 29.98 in1015.2 mb - 0.00 in0.0 mm 0.22 in5.6 mm
08:30 AM 79.3°F26.3°C 74.4°F23.6°C 85% Calm Calm -- 29.98 in1015.2 mb - 0.00 in0.0 mm 0.22 in5.6 mm
08:25 AM 79.0°F26.1°C 75.1°F23.9°C 88% 1.2 mph NNE1.9 kmh NNE 2.3 mph3.7 kmh 29.97 in1014.9 mb - 0.00 in0.0 mm 0.22 in5.6 mm
08:20 AM 78.3°F25.7°C 75.4°F24.1°C 91% Calm Calm 2.3 mph3.7 kmh 29.97 in1014.9 mb - 0.00 in0.0 mm 0.22 in5.6 mm
08:15 AM 78.3°F25.7°C 75.4°F24.1°C 91% Calm Calm 2.3 mph3.7 kmh 29.97 in1014.9 mb - 0.00 in0.0 mm 0.22 in5.6 mm
08:10 AM 78.3°F25.7°C 75.4°F24.1°C 91% Calm Calm 2.3 mph3.7 kmh 29.97 in1014.9 mb - 0.00 in0.0 mm 0.22 in5.6 mm
08:00 AM 77.7°F25.4°C 75.5°F24.2°C 93% Calm Calm -- 29.96 in1014.6 mb - 0.00 in0.0 mm 0.22 in5.6 mm
07:55 AM 77.5°F25.3°C 75.7°F24.3°C 94% Calm Calm 2.3 mph3.7 kmh 29.96 in1014.6 mb - 0.00 in0.0 mm 0.22 in5.6 mm
07:50 AM 77.3°F25.2°C 75.4°F24.1°C 94% Calm Calm -- 29.97 in1014.9 mb - 0.00 in0.0 mm 0.22 in5.6 mm
07:45 AM 77.2°F25.1°C 75.3°F24.1°C 94% 1.2 mph N1.9 kmh N 4.6 mph7.4 kmh 29.96 in1014.6 mb - 0.00 in0.0 mm 0.22 in5.6 mm
07:40 AM 77.2°F25.1°C 75.6°F24.2°C 95% 1.2 mph WNW1.9 kmh WNW 4.6 mph7.4 kmh 29.96 in1014.6 mb - 0.00 in0.0 mm 0.22 in5.6 mm
07:35 AM 77.2°F25.1°C 75.6°F24.2°C 95% Calm Calm 2.3 mph3.7 kmh 29.96 in1014.6 mb - 0.00 in0.0 mm 0.22 in5.6 mm
07:30 AM 77.2°F25.1°C 75.6°F24.2°C 95% Calm Calm -- 29.96 in1014.6 mb - 0.00 in0.0 mm 0.22 in5.6 mm
07:25 AM 77.2°F25.1°C 75.6°F24.2°C 95% Calm Calm 2.3 mph3.7 kmh 29.96 in1014.6 mb - 0.00 in0.0 mm 0.22 in5.6 mm
07:20 AM 77.1°F25.1°C 75.5°F24.2°C 95% Calm Calm 4.6 mph7.4 kmh 29.96 in1014.6 mb - 0.00 in0.0 mm 0.22 in5.6 mm
07:15 AM 77.0°F25.0°C 75.5°F24.2°C 95% 2.3 mph NNE3.7 kmh NNE 4.6 mph7.4 kmh 29.95 in1014.2 mb - 0.00 in0.0 mm 0.22 in5.6 mm
07:10 AM 77.0°F25.0°C 75.8°F24.3°C 96% Calm Calm -- 29.95 in1014.2 mb - 0.00 in0.0 mm 0.22 in5.6 mm
07:00 AM 77.0°F25.0°C 75.8°F24.3°C 96% Calm Calm 2.3 mph3.7 kmh 29.95 in1014.2 mb - 0.00 in0.0 mm 0.22 in5.6 mm
06:55 AM 76.8°F24.9°C 75.6°F24.2°C 96% 2.3 mph NE3.7 kmh NE 2.3 mph3.7 kmh 29.94 in1013.9 mb - 0.00 in0.0 mm 0.22 in5.6 mm
06:50 AM 76.8°F24.9°C 75.6°F24.2°C 96% Calm Calm -- 29.94 in1013.9 mb - 0.00 in0.0 mm 0.22 in5.6 mm
06:45 AM 76.8°F24.9°C 75.6°F24.2°C 96% Calm Calm -- 29.94 in1013.9 mb - 0.00 in0.0 mm 0.22 in5.6 mm
06:40 AM 76.8°F24.9°C 75.6°F24.2°C 96% Calm Calm -- 29.93 in1013.5 mb - 0.00 in0.0 mm 0.22 in5.6 mm
06:35 AM 76.8°F24.9°C 75.6°F24.2°C 96% Calm Calm 2.3 mph3.7 kmh 29.93 in1013.5 mb - 0.00 in0.0 mm 0.22 in5.6 mm
06:30 AM 76.8°F24.9°C 75.6°F24.2°C 96% Calm Calm 2.3 mph3.7 kmh 29.93 in1013.5 mb - 0.01 in0.3 mm 0.22 in5.6 mm
06:25 AM 76.6°F24.8°C 75.4°F24.1°C 96% Calm Calm -- 29.94 in1013.9 mb - 0.01 in0.3 mm 0.22 in5.6 mm
06:20 AM 76.6°F24.8°C 75.7°F24.3°C 97% Calm Calm -- 29.93 in1013.5 mb - 0.01 in0.3 mm 0.22 in5.6 mm
06:15 AM 76.8°F24.9°C 75.9°F24.4°C 97% Calm Calm -- 29.94 in1013.9 mb - 0.01 in0.3 mm 0.22 in5.6 mm
06:10 AM 76.8°F24.9°C 75.9°F24.4°C 97% 1.2 mph NNE1.9 kmh NNE 2.3 mph3.7 kmh 29.93 in1013.5 mb - 0.01 in0.3 mm 0.22 in5.6 mm
06:00 AM 76.8°F24.9°C 75.9°F24.4°C 97% Calm Calm 2.3 mph3.7 kmh 29.93 in1013.5 mb - 0.01 in0.3 mm 0.22 in5.6 mm
05:55 AM 76.8°F24.9°C 75.9°F24.4°C 97% Calm Calm 2.3 mph3.7 kmh 29.93 in1013.5 mb - 0.01 in0.3 mm 0.22 in5.6 mm
05:50 AM 76.8°F24.9°C 75.9°F24.4°C 97% 1.2 mph NE1.9 kmh NE 4.6 mph7.4 kmh 29.93 in1013.5 mb - 0.01 in0.3 mm 0.22 in5.6 mm
05:45 AM 77.0°F25.0°C 75.8°F24.3°C 96% 1.2 mph NNE1.9 kmh NNE 4.6 mph7.4 kmh 29.93 in1013.5 mb - 0.02 in0.5 mm 0.22 in5.6 mm
05:40 AM 77.0°F25.0°C 75.8°F24.3°C 96% 1.2 mph NE1.9 kmh NE 4.6 mph7.4 kmh 29.93 in1013.5 mb - 0.02 in0.5 mm 0.22 in5.6 mm
05:35 AM 77.0°F25.0°C 75.8°F24.3°C 96% Calm Calm 2.3 mph3.7 kmh 29.93 in1013.5 mb - 0.02 in0.5 mm 0.22 in5.6 mm
05:30 AM 76.8°F24.9°C 75.9°F24.4°C 97% Calm Calm -- 29.92 in1013.2 mb - 0.01 in0.3 mm 0.21 in5.3 mm
05:25 AM 76.8°F24.9°C 75.9°F24.4°C 97% Calm Calm -- 29.92 in1013.2 mb - 0.01 in0.3 mm 0.21 in5.3 mm
05:20 AM 76.8°F24.9°C 75.9°F24.4°C 97% Calm Calm -- 29.92 in1013.2 mb - 0.01 in0.3 mm 0.21 in5.3 mm
05:15 AM 76.8°F24.9°C 75.9°F24.4°C 97% Calm Calm -- 29.92 in1013.2 mb - 0.01 in0.3 mm 0.21 in5.3 mm
05:10 AM 76.8°F24.9°C 75.9°F24.4°C 97% Calm Calm -- 29.92 in1013.2 mb - 0.01 in0.3 mm 0.21 in5.3 mm
05:00 AM 76.8°F24.9°C 75.9°F24.4°C 97% Calm Calm -- 29.92 in1013.2 mb - 0.21 in5.3 mm 0.21 in5.3 mm
04:55 AM 76.8°F24.9°C 75.9°F24.4°C 97% Calm Calm -- 29.92 in1013.2 mb - 0.21 in5.3 mm 0.21 in5.3 mm
04:50 AM 77.0°F25.0°C 76.1°F24.5°C 97% 2.3 mph N3.7 kmh N 4.6 mph7.4 kmh 29.92 in1013.2 mb - 0.21 in5.3 mm 0.21 in5.3 mm
04:45 AM 77.0°F25.0°C 75.8°F24.3°C 96% Calm Calm -- 29.92 in1013.2 mb - 0.20 in5.1 mm 0.20 in5.1 mm
04:40 AM 76.6°F24.8°C 75.4°F24.1°C 96% Calm Calm -- 29.91 in1012.9 mb - 0.20 in5.1 mm 0.20 in5.1 mm
04:35 AM 76.6°F24.8°C 75.4°F24.1°C 96% Calm Calm -- 29.91 in1012.9 mb - 0.20 in5.1 mm 0.20 in5.1 mm
04:30 AM 76.6°F24.8°C 75.4°F24.1°C 96% Calm Calm -- 29.91 in1012.9 mb - 0.20 in5.1 mm 0.20 in5.1 mm
04:25 AM 76.6°F24.8°C 75.4°F24.1°C 96% Calm Calm -- 29.91 in1012.9 mb - 0.20 in5.1 mm 0.20 in5.1 mm
04:20 AM 76.6°F24.8°C 75.4°F24.1°C 96% Calm Calm -- 29.91 in1012.9 mb - 0.20 in5.1 mm 0.20 in5.1 mm
04:15 AM 76.6°F24.8°C 75.4°F24.1°C 96% Calm Calm -- 29.91 in1012.9 mb - 0.20 in5.1 mm 0.20 in5.1 mm
04:10 AM 76.6°F24.8°C 75.4°F24.1°C 96% Calm Calm -- 29.91 in1012.9 mb - 0.20 in5.1 mm 0.20 in5.1 mm
04:00 AM 77.2°F25.1°C 75.3°F24.1°C 94% Calm Calm -- 29.93 in1013.5 mb - 0.00 in0.0 mm 0.00 in0.0 mm
03:55 AM 77.2°F25.1°C 75.3°F24.1°C 94% Calm Calm -- 29.93 in1013.5 mb - 0.00 in0.0 mm 0.00 in0.0 mm
03:50 AM 77.2°F25.1°C 75.3°F24.1°C 94% Calm Calm -- 29.93 in1013.5 mb - 0.00 in0.0 mm 0.00 in0.0 mm
03:45 AM 77.2°F25.1°C 75.3°F24.1°C 94% Calm Calm -- 29.93 in1013.5 mb - 0.00 in0.0 mm 0.00 in0.0 mm
03:40 AM 77.2°F25.1°C 75.3°F24.1°C 94% Calm Calm -- 29.93 in1013.5 mb - 0.00 in0.0 mm 0.00 in0.0 mm
03:35 AM 77.2°F25.1°C 75.3°F24.1°C 94% Calm Calm -- 29.93 in1013.5 mb - 0.00 in0.0 mm 0.00 in0.0 mm
03:30 AM 77.2°F25.1°C 75.3°F24.1°C 94% Calm Calm -- 29.93 in1013.5 mb - 0.00 in0.0 mm 0.00 in0.0 mm
03:25 AM 77.2°F25.1°C 75.3°F24.1°C 94% Calm Calm -- 29.93 in1013.5 mb - 0.00 in0.0 mm 0.00 in0.0 mm
03:20 AM 77.2°F25.1°C 75.3°F24.1°C 94% Calm Calm -- 29.93 in1013.5 mb - 0.00 in0.0 mm 0.00 in0.0 mm
03:15 AM 77.2°F25.1°C 75.3°F24.1°C 94% Calm Calm -- 29.93 in1013.5 mb - 0.00 in0.0 mm 0.00 in0.0 mm
03:10 AM 77.2°F25.1°C 75.3°F24.1°C 94% Calm Calm -- 29.93 in1013.5 mb - 0.00 in0.0 mm 0.00 in0.0 mm
03:00 AM 77.2°F25.1°C 75.3°F24.1°C 94% Calm Calm -- 29.93 in1013.5 mb - 0.00 in0.0 mm 0.00 in0.0 mm
02:55 AM 77.2°F25.1°C 75.3°F24.1°C 94% Calm Calm -- 29.93 in1013.5 mb - 0.00 in0.0 mm 0.00 in0.0 mm
02:50 AM 77.2°F25.1°C 75.3°F24.1°C 94% Calm Calm -- 29.93 in1013.5 mb - 0.00 in0.0 mm 0.00 in0.0 mm
02:45 AM 77.2°F25.1°C 75.3°F24.1°C 94% Calm Calm -- 29.93 in1013.5 mb - 0.00 in0.0 mm 0.00 in0.0 mm
02:40 AM 77.2°F25.1°C 75.3°F24.1°C 94% Calm Calm -- 29.93 in1013.5 mb - 0.00 in0.0 mm 0.00 in0.0 mm
02:35 AM 77.2°F25.1°C 75.3°F24.1°C 94% Calm Calm -- 29.93 in1013.5 mb - 0.00 in0.0 mm 0.00 in0.0 mm
02:30 AM 77.2°F25.1°C 75.3°F24.1°C 94% Calm Calm -- 29.93 in1013.5 mb - 0.00 in0.0 mm 0.00 in0.0 mm
02:25 AM 77.2°F25.1°C 75.3°F24.1°C 94% Calm Calm -- 29.93 in1013.5 mb - 0.00 in0.0 mm 0.00 in0.0 mm
02:20 AM 77.2°F25.1°C 75.3°F24.1°C 94% Calm Calm -- 29.93 in1013.5 mb - 0.00 in0.0 mm 0.00 in0.0 mm
02:15 AM 77.2°F25.1°C 75.3°F24.1°C 94% Calm Calm -- 29.93 in1013.5 mb - 0.00 in0.0 mm 0.00 in0.0 mm
02:10 AM 77.2°F25.1°C 75.3°F24.1°C 94% Calm Calm -- 29.93 in1013.5 mb - 0.00 in0.0 mm 0.00 in0.0 mm
02:00 AM 77.2°F25.1°C 75.3°F24.1°C 94% Calm Calm -- 29.92 in1013.2 mb - 0.00 in0.0 mm 0.00 in0.0 mm
01:55 AM 77.2°F25.1°C 75.3°F24.1°C 94% Calm Calm 2.3 mph3.7 kmh 29.92 in1013.2 mb - 0.00 in0.0 mm 0.00 in0.0 mm
01:50 AM 77.2°F25.1°C 75.3°F24.1°C 94% Calm Calm 2.3 mph3.7 kmh 29.93 in1013.5 mb - 0.00 in0.0 mm 0.00 in0.0 mm
01:45 AM 77.2°F25.1°C 75.3°F24.1°C 94% Calm Calm 2.3 mph3.7 kmh 29.93 in1013.5 mb - 0.00 in0.0 mm 0.00 in0.0 mm
01:40 AM 77.2°F25.1°C 75.3°F24.1°C 94% Calm Calm 2.3 mph3.7 kmh 29.93 in1013.5 mb - 0.00 in0.0 mm 0.00 in0.0 mm
01:35 AM 77.2°F25.1°C 75.3°F24.1°C 94% Calm Calm -- 29.94 in1013.9 mb - 0.00 in0.0 mm 0.00 in0.0 mm
01:30 AM 77.2°F25.1°C 75.3°F24.1°C 94% Calm Calm -- 29.93 in1013.5 mb - 0.00 in0.0 mm 0.00 in0.0 mm
01:25 AM 77.2°F25.1°C 75.3°F24.1°C 94% Calm Calm -- 29.93 in1013.5 mb - 0.00 in0.0 mm 0.00 in0.0 mm
01:20 AM 77.2°F25.1°C 75.3°F24.1°C 94% Calm Calm 2.3 mph3.7 kmh 29.93 in1013.5 mb - 0.00 in0.0 mm 0.00 in0.0 mm
01:15 AM 77.0°F25.0°C 75.5°F24.2°C 95% Calm Calm 2.3 mph3.7 kmh 29.96 in1014.6 mb - 0.00 in0.0 mm 0.00 in0.0 mm
01:10 AM 77.0°F25.0°C 75.5°F24.2°C 95% Calm Calm 2.3 mph3.7 kmh 29.96 in1014.6 mb - 0.00 in0.0 mm 0.00 in0.0 mm
01:00 AM 77.0°F25.0°C 75.5°F24.2°C 95% Calm Calm 2.3 mph3.7 kmh 29.96 in1014.6 mb - 0.00 in0.0 mm 0.00 in0.0 mm
12:55 AM 77.0°F25.0°C 75.5°F24.2°C 95% Calm Calm 2.3 mph3.7 kmh 29.96 in1014.6 mb - 0.00 in0.0 mm 0.00 in0.0 mm
12:50 AM 77.0°F25.0°C 75.5°F24.2°C 95% Calm Calm 2.3 mph3.7 kmh 29.96 in1014.6 mb - 0.00 in0.0 mm 0.00 in0.0 mm
12:45 AM 77.0°F25.0°C 75.5°F24.2°C 95% Calm Calm 2.3 mph3.7 kmh 29.96 in1014.6 mb - 0.00 in0.0 mm 0.00 in0.0 mm
12:40 AM 77.0°F25.0°C 75.5°F24.2°C 95% Calm Calm 2.3 mph3.7 kmh 29.96 in1014.6 mb - 0.00 in0.0 mm 0.00 in0.0 mm
12:35 AM 77.0°F25.0°C 75.5°F24.2°C 95% Calm Calm 2.3 mph3.7 kmh 29.96 in1014.6 mb - 0.00 in0.0 mm 0.00 in0.0 mm
12:30 AM 77.0°F25.0°C 75.5°F24.2°C 95% Calm Calm 2.3 mph3.7 kmh 29.96 in1014.6 mb - 0.00 in0.0 mm 0.00 in0.0 mm
12:25 AM 77.0°F25.0°C 75.5°F24.2°C 95% Calm Calm 2.3 mph3.7 kmh 29.96 in1014.6 mb - 0.00 in0.0 mm 0.00 in0.0 mm
12:20 AM 77.0°F25.0°C 75.5°F24.2°C 95% Calm Calm 2.3 mph3.7 kmh 29.96 in1014.6 mb - 0.00 in0.0 mm 0.00 in0.0 mm
12:15 AM 77.0°F25.0°C 75.5°F24.2°C 95% Calm Calm 2.3 mph3.7 kmh 29.96 in1014.6 mb - 0.00 in0.0 mm 0.00 in0.0 mm
12:10 AM 77.0°F25.0°C 75.5°F24.2°C 95% Calm Calm 2.3 mph3.7 kmh 29.96 in1014.6 mb - 0.00 in0.0 mm 0.00 in0.0 mm
12:00 AM 77.0°F25.0°C 75.5°F24.2°C 95% Calm Calm 2.3 mph3.7 kmh 29.96 in1014.6 mb - 0.00 in0.0 mm 0.00 in0.0 mm